MLG weather

Abdul Rachman Saleh Airport
Malang-Java Island, Jawa Timur, Indonesia

Public forecast

Using degrees Celsius for public forecast. Weather courtesy of forecast.io.

METAR (pilot weather report)

Closest report is Juanda International Airport, 33.1 nm (61.3 km) N. Retrieved 2019/03/26 03:00 UTC (58 minutes ago):

WARR 260300Z 10007KT 070V140 9999 FEW020 29/25 Q1012 NOSIG

TAF (pilot weather forecast)

Forecast is more than 12 hours old.

Retrieved 2016/05/26 00:00 UTC (3 years ago):

TAF WARA 262300Z 2700/2712 34012KT 7000 FEW016 TEMPO 2700/2701 00000KT 3000 BR SCT010 TEMPO 2707/2710 18010KT 3000 TSRA FEW016CB BKN014